KMLI/MLI METAR and TAF weather

Enter ICAO airport designator
Station Type Date Time Source
KMLI METAR 2021/03/05 06:52 UTC NOAA

KMLI 050652Z AUTO 09008KT 10SM CLR M03/M06 A3035 RMK AO2 SLP282 T10281061


Station Type Date Time Source
KMLI Decoded METAR 2021/03/05 06:52 UTC NOAA

MOLINE QUAD-CITY AIRPORT, IL, United States (KMLI) 41-27N 90-31W 184M
Mar 05, 2021 - 01:52 AM EST / 2021.03.05 0652 UTC
Wind: from the E (090 degrees) at 9 MPH (8 KT):0
Visibility: 10 mile(s):0
Sky conditions: clear
Temperature: 27.0 F (-2.8 C)
Windchill: 17 F (-8 C):1
Dew Point: 21.0 F (-6.1 C)
Relative Humidity: 77%
Pressure (altimeter): 30.35 in. Hg (1027 hPa)
ob: KMLI 050652Z AUTO 09008KT 10SM CLR M03/M06 A3035 RMK AO2 SLP282 T10281061
cycle: 7

Station Type Date Time Source
KMLI TAF 2021/03/05 06:22 UTC NOAA

TAF KMLI 050520Z 0506/0606 07004KT P6SM SKC

Example: see airport list